CheckWX is a tool to help pilots better visualize weather data.  It is not intended as a substitute for an official pre-flight weather briefing.

10:07:53 UTC

SPJC TAF
Jorge Chávez International Airport
Callao, Peru
TAF SPJC 260500Z 2606/2706 15007KT 8000 SCT012 OVC015 TX20/2619Z TN15/2611Z TEMPO 2610/2613 5000 BR OVC009 BECMG 2614/2616 25007KT OVC017 BECMG 2619/2621 18008KT 9999 BKN020

Jun-26@
06:00 UTC

Jun-26 @ 06:00 UTC

Jun-26@
14:00 UTC

Jun-26 @ 14:00 UTC

TAF SPJC 260500Z 2606/2706 15007KT 8000 SCT012 OVC015 TX20/2619Z TN15/2611Z
Wind
  • 150° at 7 KTS
Cloud Levels
  • Scattered at 1,200' AGL
  • Overcast at 1,500' AGL

Jun-26@
10:00 UTC

Jun-26 @ 10:00 UTC

Jun-26@
13:00 UTC

Jun-26 @ 13:00 UTC

TEMPO 2610/2613 5000 BR OVC009

Temporary

Temporary Changes expected for less than half the time period

Conditions
Mist
Cloud Levels
  • Overcast at 900' AGL

Jun-26@
14:00 UTC

Jun-26 @ 14:00 UTC

Jun-26@
19:00 UTC

Jun-26 @ 19:00 UTC

BECMG 2614/2616 25007KT OVC017

Becoming

Becoming Conditions expected by Wed, Jun 26, 2019 @ 16:00 UTC

Wind
  • 250° at 7 KTS
Cloud Levels
  • Overcast at 1,700' AGL

Jun-26@
19:00 UTC

Jun-26 @ 19:00 UTC

Jun-27@
06:00 UTC

Jun-27 @ 06:00 UTC

BECMG 2619/2621 18008KT 9999 BKN020

Becoming

Becoming Conditions expected by Wed, Jun 26, 2019 @ 21:00 UTC

Wind
  • 180° at 8 KTS
Cloud Levels
  • Broken at 2,000' AGL